createdAt,value
2017-02-28T00:00:14.313Z,77.72
2017-02-28T00:01:14.328Z,77.81
2017-02-28T00:02:14.346Z,76.96
2017-02-28T00:03:14.368Z,77.53
2017-02-28T00:04:14.387Z,77.81
2017-02-28T00:05:14.415Z,77.62
2017-02-28T00:06:28.955Z,77.43
2017-02-28T00:07:14.445Z,77.81
2017-02-28T00:08:14.468Z,77.53
2017-02-28T00:09:14.493Z,77.62
2017-02-28T00:10:14.520Z,77.34
2017-02-28T00:12:14.556Z,77.53
2017-02-28T00:13:14.568Z,77.15
2017-02-28T00:14:14.585Z,77.24
2017-02-28T00:15:14.619Z,77.43
2017-02-28T00:16:14.624Z,77.34
2017-02-28T00:17:14.645Z,77.53
2017-02-28T00:18:14.675Z,77.43
2017-02-28T00:19:14.688Z,77.53
2017-02-28T00:20:14.714Z,77.81
2017-02-28T00:21:29.256Z,77.62
2017-02-28T00:22:14.745Z,77.81
2017-02-28T00:23:14.768Z,77.53
2017-02-28T00:24:14.810Z,77.05
2017-02-28T00:25:14.810Z,76.96
2017-02-28T00:27:14.858Z,76.96
2017-02-28T00:28:14.878Z,76.96
2017-02-28T00:29:14.511Z,76.71
2017-02-28T00:30:14.911Z,76.96
2017-02-28T00:31:14.928Z,77.37
2017-02-28T00:32:14.946Z,77.53
2017-02-28T00:33:14.979Z,78.52
2017-02-28T00:34:14.991Z,78.14
2017-02-28T00:35:15.007Z,79.28
2017-02-28T00:36:15.028Z,79.09
2017-02-28T00:37:15.060Z,79.05
2017-02-28T00:38:14.681Z,79.52
2017-02-28T00:39:15.087Z,79.62
2017-02-28T00:40:15.114Z,79.91
2017-02-28T00:41:15.143Z,79.75
2017-02-28T00:42:15.156Z,80.29
2017-02-28T00:43:15.171Z,80.76
2017-02-28T00:44:15.187Z,80.66
2017-02-28T00:46:15.226Z,79.72
2017-02-28T00:47:15.249Z,79.91
2017-02-28T00:48:15.268Z,80.19
2017-02-28T00:49:14.901Z,80.38
2017-02-28T00:50:15.310Z,79.91
2017-02-28T00:51:15.342Z,80.29
2017-02-28T00:52:15.353Z,79.52
2017-02-28T00:53:29.896Z,79.62
2017-02-28T00:54:15.403Z,79.75
2017-02-28T00:55:15.409Z,79.57
2017-02-28T00:56:15.430Z,79.94
2017-02-28T00:57:15.446Z,79.75
2017-02-28T00:58:15.471Z,79.52
2017-02-28T01:00:15.121Z,79.66
2017-02-28T01:01:15.529Z,79.94
2017-02-28T01:02:15.556Z,79.38
2017-02-28T01:03:15.567Z,79.57
2017-02-28T01:04:15.602Z,79.38
2017-02-28T01:05:15.607Z,79.38
2017-02-28T01:06:15.632Z,78.67
2017-02-28T01:07:15.646Z,80.1
2017-02-28T01:08:15.669Z,79.66
2017-02-28T01:09:30.216Z,78.42
2017-02-28T01:10:15.709Z,79.09
2017-02-28T01:11:15.730Z,79.19
2017-02-28T01:12:15.748Z,78.8
2017-02-28T01:13:15.798Z,78.9
2017-02-28T01:14:15.788Z,79.38
2017-02-28T01:15:15.809Z,79.28
2017-02-28T01:16:15.842Z,79.19
2017-02-28T01:18:15.875Z,79.19
2017-02-28T01:19:15.889Z,79.19
2017-02-28T01:20:15.923Z,78.52
2017-02-28T01:21:15.931Z,78.52
2017-02-28T01:22:15.951Z,78.04
2017-02-28T01:23:15.968Z,77.95
2017-02-28T01:24:15.995Z,78.33
2017-02-28T01:25:30.538Z,78.14
2017-02-28T01:26:16.030Z,77.85
2017-02-28T01:27:16.058Z,78.04
2017-02-28T01:28:16.074Z,77.66
2017-02-28T01:29:16.107Z,77.95
2017-02-28T01:30:16.111Z,77.76
2017-02-28T01:31:16.143Z,77.85
2017-02-28T01:32:16.150Z,77.56
2017-02-28T01:33:16.173Z,77.89
2017-02-28T01:34:16.195Z,77.51
2017-02-28T01:35:16.224Z,76.75
2017-02-28T01:36:16.241Z,77.13
2017-02-28T01:37:16.252Z,77.51
2017-02-28T01:38:16.272Z,76.75
2017-02-28T01:39:16.301Z,75.99
2017-02-28T01:40:16.313Z,75.99
2017-02-28T01:41:30.862Z,75.99
2017-02-28T01:42:16.356Z,76.18
2017-02-28T01:43:16.373Z,76.18
2017-02-28T01:46:16.442Z,75.32
2017-02-28T01:47:16.460Z,75.51
2017-02-28T01:48:16.475Z,75.99
2017-02-28T01:49:16.497Z,75.13
2017-02-28T01:50:16.143Z,75.13
2017-02-28T01:51:16.536Z,74.79
2017-02-28T01:52:16.561Z,74.88
2017-02-28T01:53:16.576Z,74.6
2017-02-28T01:54:16.597Z,74.88
2017-02-28T01:55:16.623Z,74.79
2017-02-28T01:56:31.168Z,74.5
2017-02-28T01:57:16.657Z,74.5
2017-02-28T01:58:16.679Z,74.4
2017-02-28T01:59:16.703Z,74.5
2017-02-28T02:00:16.730Z,74.6
2017-02-28T02:01:16.743Z,74.31
2017-02-28T02:02:16.763Z,74.21
2017-02-28T02:03:16.781Z,74.79
2017-02-28T02:04:16.802Z,74.02
2017-02-28T02:06:16.842Z,74.12
2017-02-28T02:07:16.881Z,74.02
2017-02-28T02:08:16.884Z,73.93
2017-02-28T02:09:16.905Z,74.6
2017-02-28T02:10:16.924Z,74.12
2017-02-28T02:11:16.946Z,74.69
2017-02-28T02:12:16.972Z,74.21
2017-02-28T02:13:16.987Z,74.6
2017-02-28T02:14:17.006Z,74.88
2017-02-28T02:16:17.046Z,74.69
2017-02-28T02:17:17.073Z,74.5
2017-02-28T02:18:17.089Z,74.79
2017-02-28T02:19:17.111Z,74.69
2017-02-28T02:20:16.743Z,74.79
2017-02-28T02:21:17.150Z,75.36
2017-02-28T02:22:17.172Z,74.69
2017-02-28T02:23:17.193Z,74.69
2017-02-28T02:24:16.822Z,75.07
2017-02-28T02:25:17.233Z,75.36
2017-02-28T02:26:17.253Z,75.26
2017-02-28T02:27:17.282Z,75.16
2017-02-28T02:28:31.825Z,74.98
2017-02-28T02:29:17.315Z,75.64
2017-02-28T02:30:17.337Z,75.74
2017-02-28T02:31:17.356Z,74.98
2017-02-28T02:32:17.383Z,75.74
2017-02-28T02:33:17.403Z,75.45
2017-02-28T02:34:17.421Z,76.03
2017-02-28T02:35:17.438Z,75.74
2017-02-28T02:37:17.481Z,75.45
2017-02-28T02:38:17.505Z,75.45
2017-02-28T02:39:17.521Z,76.03
2017-02-28T02:40:17.541Z,76.03
2017-02-28T02:41:17.560Z,76.27
2017-02-28T02:42:17.583Z,76.08
2017-02-28T02:43:17.611Z,76.37
2017-02-28T02:44:32.152Z,76.27
2017-02-28T02:45:17.643Z,76.94
2017-02-28T02:46:17.670Z,76.88
2017-02-28T02:47:17.699Z,77.07
2017-02-28T02:49:17.725Z,77.36
2017-02-28T02:50:17.746Z,76.88
2017-02-28T02:51:17.769Z,77.17
2017-02-28T02:52:17.401Z,77.17
2017-02-28T02:53:17.807Z,76.88
2017-02-28T02:54:17.827Z,77.8
2017-02-28T02:55:17.851Z,78.31
2017-02-28T02:56:17.887Z,77.93
2017-02-28T02:57:17.903Z,77.61
2017-02-28T02:58:17.916Z,77.51
2017-02-28T02:59:17.935Z,77.8
2017-02-28T03:00:32.480Z,78.17
2017-02-28T03:01:17.974Z,78.65
2017-02-28T03:02:17.993Z,77.98
2017-02-28T03:03:18.025Z,77.89
2017-02-28T03:04:18.040Z,78.46
2017-02-28T03:05:18.056Z,78.27
2017-02-28T03:06:18.076Z,78.37
2017-02-28T03:07:18.096Z,79.22
2017-02-28T03:08:18.117Z,79.13
2017-02-28T03:10:17.771Z,79.41
2017-02-28T03:11:18.177Z,79.41
2017-02-28T03:12:18.203Z,79.74
2017-02-28T03:13:18.219Z,79.83
2017-02-28T03:14:18.239Z,80.22
2017-02-28T03:15:18.263Z,79.74
2017-02-28T03:16:32.809Z,80.02
2017-02-28T03:17:18.325Z,80.41
2017-02-28T03:18:18.330Z,80.41
2017-02-28T03:19:18.341Z,80.5
2017-02-28T03:20:18.372Z,80.6
2017-02-28T03:22:18.412Z,80.41
2017-02-28T03:23:18.434Z,80.79
2017-02-28T03:24:18.448Z,80.69
2017-02-28T03:25:18.471Z,80.69
2017-02-28T03:26:18.495Z,80.88
2017-02-28T03:27:18.504Z,80.69
2017-02-28T03:28:18.528Z,80.88
2017-02-28T03:29:18.546Z,80.98
2017-02-28T03:30:18.570Z,80.88
2017-02-28T03:31:33.118Z,80.98
2017-02-28T03:32:18.610Z,80.88
2017-02-28T03:33:18.630Z,81.17
2017-02-28T03:34:18.651Z,80.98
2017-02-28T03:35:18.284Z,80.98
2017-02-28T03:36:18.305Z,81.17
2017-02-28T03:37:18.726Z,80.79
2017-02-28T03:38:18.733Z,80.79
2017-02-28T03:39:18.753Z,80.79
2017-02-28T03:40:18.774Z,80.69
2017-02-28T03:41:18.794Z,81.65
2017-02-28T03:42:18.815Z,81.55
2017-02-28T03:43:18.836Z,81.46
2017-02-28T03:44:18.856Z,81.55
2017-02-28T03:46:18.897Z,81.46
2017-02-28T03:47:18.919Z,81.46
2017-02-28T03:48:18.938Z,81.36
2017-02-28T03:49:18.960Z,81.26
2017-02-28T03:50:18.990Z,81.46
2017-02-28T03:51:18.999Z,81.46
2017-02-28T03:52:19.021Z,81.65
2017-02-28T03:53:19.040Z,81.65
2017-02-28T03:54:19.060Z,81.26
2017-02-28T03:55:18.699Z,82.12
2017-02-28T03:56:19.101Z,81.74
2017-02-28T03:57:19.139Z,81.36
2017-02-28T03:58:19.143Z,81.46
2017-02-28T03:59:19.163Z,81.93
2017-02-28T04:00:19.192Z,81.84
2017-02-28T04:01:19.228Z,82.03
2017-02-28T04:02:19.243Z,81.74
2017-02-28T04:03:33.776Z,82.12
2017-02-28T04:04:19.268Z,82.12
2017-02-28T04:05:19.293Z,82.21
2017-02-28T04:06:19.310Z,82.21
2017-02-28T04:07:19.330Z,82.03
2017-02-28T04:08:19.353Z,81.26
2017-02-28T04:09:18.984Z,81.65
2017-02-28T04:10:19.392Z,81.46
2017-02-28T04:11:19.419Z,81.65
2017-02-28T04:12:19.438Z,81.26
2017-02-28T04:13:19.452Z,81.46
2017-02-28T04:14:19.480Z,81.17
2017-02-28T04:15:19.495Z,81.93
2017-02-28T04:16:19.517Z,81.74
2017-02-28T04:17:19.542Z,81.74
2017-02-28T04:18:19.560Z,81.65
2017-02-28T04:19:34.108Z,81.26
2017-02-28T04:20:19.600Z,81.65
2017-02-28T04:21:19.235Z,81.46
2017-02-28T04:22:19.641Z,81.26
2017-02-28T04:23:19.665Z,81.46
2017-02-28T04:24:19.295Z,81.07
2017-02-28T04:25:19.705Z,81.36
2017-02-28T04:26:19.727Z,81.65
2017-02-28T04:27:19.745Z,80.88
2017-02-28T04:28:19.764Z,81.17
2017-02-28T04:29:19.785Z,81.46
2017-02-28T04:30:19.430Z,81.36
2017-02-28T04:31:19.828Z,81.55
2017-02-28T04:32:19.460Z,81.55
2017-02-28T04:33:19.869Z,81.26
2017-02-28T04:34:19.894Z,81.26
2017-02-28T04:35:34.439Z,81.74
2017-02-28T04:36:19.932Z,81.36
2017-02-28T04:37:19.954Z,81.74
2017-02-28T04:38:19.986Z,81.36
2017-02-28T04:39:20.008Z,81.46
2017-02-28T04:40:20.028Z,81.74
2017-02-28T04:41:20.036Z,81.93
2017-02-28T04:43:20.096Z,81.65
2017-02-28T04:44:19.711Z,81.74
2017-02-28T04:45:20.118Z,81.46
2017-02-28T04:46:19.750Z,81.93
2017-02-28T04:47:20.181Z,81.26
2017-02-28T04:48:20.201Z,81.74
2017-02-28T04:49:20.199Z,81.65
2017-02-28T04:50:20.221Z,81.65
2017-02-28T04:51:34.771Z,81.65
2017-02-28T04:52:20.266Z,81.74
2017-02-28T04:53:20.287Z,82.12
2017-02-28T04:54:20.308Z,81.36
2017-02-28T04:56:20.356Z,81.65
2017-02-28T04:57:20.368Z,81.93
2017-02-28T04:58:20.392Z,81.93
2017-02-28T04:59:20.418Z,81.93
2017-02-28T05:00:20.429Z,82.03
2017-02-28T05:01:20.452Z,82.6
2017-02-28T05:02:20.094Z,81.74
2017-02-28T05:03:20.490Z,81.36
2017-02-28T05:04:20.523Z,81.93
2017-02-28T05:05:20.146Z,81.93
2017-02-28T05:06:35.083Z,81.84
2017-02-28T05:07:20.582Z,82.41
2017-02-28T05:08:20.607Z,81.84
2017-02-28T05:09:20.237Z,81.74
2017-02-28T05:10:20.639Z,82.03
2017-02-28T05:11:20.669Z,82.03
2017-02-28T05:12:20.688Z,82.69
2017-02-28T05:13:20.699Z,82.5
2017-02-28T05:14:20.719Z,82.21
2017-02-28T05:15:20.739Z,82.31
2017-02-28T05:16:20.761Z,82.41
2017-02-28T05:17:20.790Z,82.12
2017-02-28T05:18:20.809Z,82.6
2017-02-28T05:19:20.840Z,82.6
2017-02-28T05:20:20.857Z,82.79
2017-02-28T05:21:20.881Z,82.79
2017-02-28T05:22:20.902Z,82.5
2017-02-28T05:24:20.926Z,82.79
2017-02-28T05:25:20.949Z,82.6
2017-02-28T05:26:20.967Z,82.6
2017-02-28T05:27:20.989Z,82.79
2017-02-28T05:28:21.013Z,82.5
2017-02-28T05:29:21.031Z,82.69
2017-02-28T05:30:21.050Z,82.89
2017-02-28T05:31:21.075Z,82.79
2017-02-28T05:32:21.099Z,82.79
2017-02-28T05:33:21.112Z,83.17
2017-02-28T05:34:21.131Z,82.89
2017-02-28T05:35:21.654Z,82.89
2017-02-28T05:36:21.187Z,83.07
2017-02-28T05:37:21.194Z,82.6
2017-02-28T05:38:35.745Z,83.07
2017-02-28T05:40:21.258Z,83.07
2017-02-28T05:41:21.277Z,82.98
2017-02-28T05:42:20.912Z,82.89
2017-02-28T05:43:20.945Z,83.45
2017-02-28T05:44:21.341Z,83.17
2017-02-28T05:45:21.376Z,83.26
2017-02-28T05:47:21.017Z,83.17
2017-02-28T05:48:21.037Z,82.98
2017-02-28T05:49:21.448Z,83.45
2017-02-28T05:50:21.464Z,83.36
2017-02-28T05:51:21.110Z,82.93
2017-02-28T05:52:21.504Z,82.5
2017-02-28T05:53:21.527Z,82.79
2017-02-28T05:54:36.077Z,83.55
2017-02-28T05:56:21.594Z,82.08
2017-02-28T05:57:21.623Z,82.79
2017-02-28T05:58:21.256Z,82.21
2017-02-28T05:59:21.271Z,82.46
2017-02-28T06:00:21.677Z,82.31
2017-02-28T06:01:21.723Z,82.41
2017-02-28T06:02:21.719Z,81.74
2017-02-28T06:03:21.757Z,81.93
2017-02-28T06:04:21.762Z,81.17
2017-02-28T06:05:21.796Z,80.88
2017-02-28T06:06:21.800Z,81.17
2017-02-28T06:08:21.853Z,80.69
2017-02-28T06:09:21.876Z,80.98
2017-02-28T06:10:36.407Z,80.88
2017-02-28T06:11:21.519Z,80.88
2017-02-28T06:12:21.544Z,80.6
2017-02-28T06:13:21.963Z,80.22
2017-02-28T06:14:21.962Z,79.83
2017-02-28T06:16:22.019Z,79.27
2017-02-28T06:17:22.061Z,80.02
2017-02-28T06:18:22.047Z,79.64
2017-02-28T06:19:22.079Z,79.64
2017-02-28T06:20:22.088Z,79.36
2017-02-28T06:21:22.111Z,79.27
2017-02-28T06:22:22.127Z,79.46
2017-02-28T06:23:22.158Z,79.27
2017-02-28T06:24:22.169Z,79.17
2017-02-28T06:25:22.218Z,79.17
2017-02-28T06:26:36.740Z,79.27
2017-02-28T06:27:22.257Z,79.07
2017-02-28T06:28:22.253Z,78.98
2017-02-28T06:29:21.900Z,79.36
2017-02-28T06:30:22.317Z,79.17
2017-02-28T06:31:22.337Z,79.07
2017-02-28T06:32:22.334Z,78.31
2017-02-28T06:33:22.374Z,78.59
2017-02-28T06:34:22.389Z,78.41
2017-02-28T06:35:22.418Z,77.93
2017-02-28T06:36:22.418Z,78.41
2017-02-28T06:37:22.456Z,77.83
2017-02-28T06:38:22.783Z,77.26
2017-02-28T06:39:22.499Z,77.93
2017-02-28T06:40:22.506Z,77.74
2017-02-28T06:41:37.051Z,77.55
2017-02-28T06:42:22.549Z,77.51
2017-02-28T06:43:22.595Z,77.36
2017-02-28T06:44:22.594Z,77.36
2017-02-28T06:45:22.640Z,77.74
2017-02-28T06:46:22.630Z,77.07
2017-02-28T06:47:22.952Z,76.98
2017-02-28T06:48:22.668Z,76.84
2017-02-28T06:49:22.687Z,77.07
2017-02-28T06:50:22.718Z,76.5
2017-02-28T06:51:22.730Z,76.12
2017-02-28T06:52:22.754Z,75.42
2017-02-28T06:53:22.789Z,74.98
2017-02-28T06:54:22.807Z,74.98
2017-02-28T06:55:22.850Z,75.32
2017-02-28T06:56:22.847Z,74.79
2017-02-28T06:57:22.885Z,74.65
2017-02-28T06:58:22.874Z,74.65
2017-02-28T06:59:22.944Z,74.56
2017-02-28T07:00:22.917Z,74.37
2017-02-28T07:01:22.960Z,73.8
2017-02-28T07:02:22.969Z,74.18
2017-02-28T07:03:22.984Z,73.99
2017-02-28T07:04:22.998Z,74.18
2017-02-28T07:05:23.036Z,73.99
2017-02-28T07:06:23.041Z,73.8
2017-02-28T07:07:23.091Z,73.8
2017-02-28T07:08:23.083Z,73.99
2017-02-28T07:09:23.136Z,74.08
2017-02-28T07:10:22.744Z,74.18
2017-02-28T07:11:23.176Z,74.08
2017-02-28T07:12:23.168Z,74.27
2017-02-28T07:13:37.714Z,74.75
2017-02-28T07:14:23.241Z,74.65
2017-02-28T07:15:23.229Z,74.84
2017-02-28T07:16:23.248Z,74.65
2017-02-28T07:18:23.295Z,75.32
2017-02-28T07:19:23.333Z,75.99
2017-02-28T07:20:23.334Z,76.46
2017-02-28T07:21:23.383Z,77.42
2017-02-28T07:22:22.988Z,77.7
2017-02-28T07:23:23.013Z,77.7
2017-02-28T07:24:23.428Z,77.61
2017-02-28T07:25:23.457Z,77.51
2017-02-28T07:26:23.475Z,76.94
2017-02-28T07:27:23.513Z,76.37
2017-02-28T07:28:23.498Z,76.27
2017-02-28T07:29:38.045Z,75.99
2017-02-28T07:30:23.552Z,76.18
2017-02-28T07:31:23.557Z,75.51
2017-02-28T07:32:23.578Z,75.99
2017-02-28T07:33:23.600Z,76.56
2017-02-28T07:34:23.617Z,76.18
2017-02-28T07:35:23.642Z,76.08
2017-02-28T07:36:23.660Z,76.08
2017-02-28T07:37:23.681Z,76.18
2017-02-28T07:38:23.701Z,75.7
2017-02-28T07:39:23.723Z,75.89
2017-02-28T07:40:23.741Z,75.51
2017-02-28T07:41:23.764Z,75.47
2017-02-28T07:42:23.783Z,75.76
2017-02-28T07:43:23.815Z,75.99
2017-02-28T07:44:23.824Z,75.67
2017-02-28T07:45:38.375Z,75.09
2017-02-28T07:46:23.878Z,75.04
2017-02-28T07:47:23.889Z,75.23
2017-02-28T07:48:23.908Z,75.09
2017-02-28T07:49:23.928Z,75.47
2017-02-28T07:50:23.958Z,75.38
2017-02-28T07:52:23.992Z,76.04
2017-02-28T07:53:24.009Z,76.14
2017-02-28T07:55:24.051Z,75.76
2017-02-28T07:56:24.070Z,76.14
2017-02-28T07:57:24.393Z,75.57
2017-02-28T07:58:24.124Z,75.95
2017-02-28T07:59:24.138Z,75.95
2017-02-28T08:00:24.152Z,75.67
2017-02-28T08:01:38.703Z,75.85
2017-02-28T08:02:24.194Z,76.33
2017-02-28T08:03:24.217Z,75.95
2017-02-28T08:04:24.236Z,76.14
2017-02-28T08:05:24.262Z,76.14
2017-02-28T08:06:24.286Z,76.14
2017-02-28T08:07:24.294Z,76.14
2017-02-28T08:10:24.359Z,76.71
2017-02-28T08:11:24.379Z,75.95
2017-02-28T08:12:24.399Z,76.23
2017-02-28T08:13:24.429Z,75.95
2017-02-28T08:14:24.441Z,76.42
2017-02-28T08:15:24.461Z,76.23
2017-02-28T08:16:39.012Z,76.14
2017-02-28T08:17:24.504Z,76.42
2017-02-28T08:18:24.524Z,76.14
2017-02-28T08:19:24.544Z,76.23
2017-02-28T08:20:24.571Z,76.04
2017-02-28T08:21:24.587Z,76.14
2017-02-28T08:22:24.605Z,76.04
2017-02-28T08:23:24.648Z,76.14
2017-02-28T08:24:24.647Z,76.42
2017-02-28T08:25:24.668Z,76.42
2017-02-28T08:26:24.688Z,76.42
2017-02-28T08:27:24.711Z,76.14
2017-02-28T08:28:24.730Z,75.85
2017-02-28T08:29:24.748Z,75.95
2017-02-28T08:30:24.771Z,75.47
2017-02-28T08:31:24.791Z,75.95
2017-02-28T08:32:24.811Z,75.19
2017-02-28T08:33:24.832Z,75.38
2017-02-28T08:34:24.853Z,75.85
2017-02-28T08:35:24.871Z,75.28
2017-02-28T08:36:24.892Z,74.99
2017-02-28T08:37:24.923Z,74.9
2017-02-28T08:38:24.956Z,75.19
2017-02-28T08:39:24.955Z,75.19
2017-02-28T08:40:24.975Z,75.28
2017-02-28T08:41:24.611Z,74.52
2017-02-28T08:42:25.017Z,74.62
2017-02-28T08:43:25.037Z,74.8
2017-02-28T08:44:25.056Z,74.62
2017-02-28T08:45:25.085Z,74.33
2017-02-28T08:46:25.099Z,74.33
2017-02-28T08:47:25.122Z,74.71
2017-02-28T08:48:39.671Z,74.8
2017-02-28T08:49:25.162Z,74.33
2017-02-28T08:50:25.184Z,74.33
2017-02-28T08:51:25.202Z,74.8
2017-02-28T08:52:25.225Z,74.52
2017-02-28T08:53:25.245Z,73.95
2017-02-28T08:54:25.264Z,73.95
2017-02-28T08:55:25.295Z,74.52
2017-02-28T08:56:25.309Z,74.14
2017-02-28T08:57:25.327Z,74.33
2017-02-28T08:58:25.355Z,74.43
2017-02-28T08:59:25.373Z,74.04
2017-02-28T09:00:25.388Z,74.08
2017-02-28T09:01:25.410Z,73.95
2017-02-28T09:02:25.428Z,74.62
2017-02-28T09:03:25.456Z,73.8
2017-02-28T09:04:40.000Z,73.7
2017-02-28T09:05:25.507Z,73.89
2017-02-28T09:06:25.130Z,73.32
2017-02-28T09:07:25.148Z,73.32
2017-02-28T09:08:25.557Z,73.22
2017-02-28T09:09:25.579Z,73.61
2017-02-28T09:10:25.596Z,73.22
2017-02-28T09:11:25.619Z,73.51
2017-02-28T09:12:25.637Z,73.41
2017-02-28T09:13:25.660Z,73.51
2017-02-28T09:14:25.679Z,72.85
2017-02-28T09:15:25.703Z,73.7
2017-02-28T09:16:25.732Z,73.41
2017-02-28T09:17:25.360Z,73.51
2017-02-28T09:18:25.771Z,72.75
2017-02-28T09:19:25.795Z,73.13
2017-02-28T09:20:40.333Z,73.13
2017-02-28T09:21:25.825Z,73.32
2017-02-28T09:22:25.847Z,73.22
2017-02-28T09:23:25.869Z,73.61
2017-02-28T09:24:25.502Z,73.61
2017-02-28T09:25:25.922Z,73.22
2017-02-28T09:26:25.932Z,73.32
2017-02-28T09:27:25.954Z,73.7
2017-02-28T09:28:25.980Z,73.41
2017-02-28T09:29:25.993Z,73.7
2017-02-28T09:30:26.018Z,73.51
2017-02-28T09:32:26.074Z,73.03
2017-02-28T09:33:26.083Z,72.75
2017-02-28T09:34:26.099Z,73.61
2017-02-28T09:35:26.120Z,73.32
2017-02-28T09:36:40.670Z,73.51
2017-02-28T09:37:26.176Z,73.51
2017-02-28T09:38:26.184Z,73.22
2017-02-28T09:39:26.206Z,73.7
2017-02-28T09:40:26.226Z,73.7
2017-02-28T09:41:26.248Z,73.41
2017-02-28T09:42:26.265Z,73.13
2017-02-28T09:43:26.288Z,72.75
2017-02-28T09:44:26.313Z,72.56
2017-02-28T09:45:26.330Z,73.13
2017-02-28T09:46:26.353Z,72.94
2017-02-28T09:47:26.377Z,72.85
2017-02-28T09:48:26.395Z,72.75
2017-02-28T09:49:26.445Z,72.88
2017-02-28T09:50:26.439Z,72.6
2017-02-28T09:51:40.989Z,72.65
2017-02-28T09:52:26.483Z,72.46
2017-02-28T09:53:26.510Z,72.94
2017-02-28T09:54:26.524Z,72.65
2017-02-28T09:55:26.545Z,72.56
2017-02-28T09:58:26.610Z,72.75
2017-02-28T09:59:26.635Z,73.22
2017-02-28T10:00:26.651Z,73.32
2017-02-28T10:01:26.672Z,73.22
2017-02-28T10:02:26.700Z,72.65
2017-02-28T10:03:26.721Z,72.56
2017-02-28T10:04:26.740Z,73.03
2017-02-28T10:05:26.757Z,72.65
2017-02-28T10:06:26.785Z,72.65
2017-02-28T10:07:26.814Z,72.46
2017-02-28T10:08:26.434Z,72.75
2017-02-28T10:09:26.457Z,72.94
2017-02-28T10:10:26.864Z,72.17
2017-02-28T10:11:26.898Z,71.89
2017-02-28T10:12:26.921Z,71.98
2017-02-28T10:13:26.942Z,71.7
2017-02-28T10:14:26.948Z,72.27
2017-02-28T10:15:26.968Z,72.08
2017-02-28T10:16:26.991Z,71.8
2017-02-28T10:17:27.028Z,72.46
2017-02-28T10:18:27.036Z,71.61
2017-02-28T10:19:27.055Z,71.98
2017-02-28T10:20:27.077Z,71.51
2017-02-28T10:21:27.112Z,70.94
2017-02-28T10:22:27.124Z,70.08
2017-02-28T10:23:41.669Z,70.65
2017-02-28T10:24:27.163Z,70.84
2017-02-28T10:25:27.192Z,69.7
2017-02-28T10:26:27.205Z,69.79
2017-02-28T10:27:27.240Z,70.37
2017-02-28T10:28:27.259Z,70.27
2017-02-28T10:30:27.293Z,69.6
2017-02-28T10:31:27.319Z,69.13
2017-02-28T10:32:27.337Z,69.99
2017-02-28T10:33:27.360Z,70.18
2017-02-28T10:34:27.375Z,69.89
2017-02-28T10:35:27.401Z,69.32
2017-02-28T10:36:27.419Z,69.6
2017-02-28T10:37:27.443Z,70.08
2017-02-28T10:38:27.473Z,69.89
2017-02-28T10:39:42.012Z,69.7
2017-02-28T10:40:27.509Z,69.89
2017-02-28T10:41:27.525Z,69.51
2017-02-28T10:42:27.553Z,69.89
2017-02-28T10:43:27.577Z,69.89
2017-02-28T10:44:27.588Z,70.37
2017-02-28T10:45:27.610Z,69.7
2017-02-28T10:46:27.645Z,70.37
2017-02-28T10:47:27.654Z,69.89
2017-02-28T10:48:27.680Z,70.47
2017-02-28T10:49:27.697Z,70.65
2017-02-28T10:50:27.718Z,70.56
2017-02-28T10:51:27.744Z,71.7
2017-02-28T10:52:27.772Z,71.42
2017-02-28T10:54:27.807Z,71.47
2017-02-28T10:55:42.352Z,71.86
2017-02-28T10:56:27.845Z,72.05
2017-02-28T10:57:27.866Z,71.47
2017-02-28T10:58:27.893Z,72.08
2017-02-28T10:59:27.908Z,72.33
2017-02-28T11:01:27.951Z,73.03
2017-02-28T11:02:27.986Z,72.9
2017-02-28T11:03:27.992Z,72.65
2017-02-28T11:04:28.016Z,72.65
2017-02-28T11:05:28.035Z,72.08
2017-02-28T11:06:28.062Z,72.37
2017-02-28T11:07:28.077Z,71.61
2017-02-28T11:08:28.106Z,72.75
2017-02-28T11:09:27.732Z,72.75
2017-02-28T11:10:27.754Z,72.27
2017-02-28T11:11:42.690Z,71.98
2017-02-28T11:12:28.184Z,72.65
2017-02-28T11:13:28.218Z,71.89
2017-02-28T11:14:28.226Z,71.26
2017-02-28T11:15:28.249Z,71.26
2017-02-28T11:16:28.269Z,70.59
2017-02-28T11:17:28.285Z,71.64
2017-02-28T11:18:27.933Z,71.55
2017-02-28T11:19:28.339Z,71.61
2017-02-28T11:20:28.353Z,71.32
2017-02-28T11:21:28.375Z,71.83
2017-02-28T11:22:28.411Z,71.73
2017-02-28T11:23:28.418Z,70.69
2017-02-28T11:24:28.443Z,70.5
2017-02-28T11:25:28.460Z,70.02
2017-02-28T11:26:43.011Z,70.4
2017-02-28T11:27:28.517Z,70.59
2017-02-28T11:28:28.524Z,70.02
2017-02-28T11:29:28.548Z,69.58
2017-02-28T11:30:28.574Z,69.96
2017-02-28T11:32:28.612Z,69.29
2017-02-28T11:33:28.634Z,69.1
2017-02-28T11:34:28.667Z,68.63
2017-02-28T11:35:28.675Z,68.63
2017-02-28T11:36:28.698Z,68.72
2017-02-28T11:37:28.724Z,68.44
2017-02-28T11:38:28.749Z,68.72
2017-02-28T11:39:28.764Z,68.53
2017-02-28T11:40:28.786Z,67.77
2017-02-28T11:41:28.810Z,68.24
2017-02-28T11:42:28.830Z,67.29
2017-02-28T11:43:28.851Z,67.9
2017-02-28T11:44:28.888Z,67.23
2017-02-28T11:45:28.510Z,66.91
2017-02-28T11:46:28.924Z,67.58
2017-02-28T11:47:28.944Z,68.15
2017-02-28T11:48:28.962Z,67.86
2017-02-28T11:49:29.283Z,67.68
2017-02-28T11:51:29.030Z,67.99
2017-02-28T11:52:29.054Z,68.28
2017-02-28T11:53:29.094Z,67.42
2017-02-28T11:54:29.094Z,67.23
2017-02-28T11:55:29.143Z,66.38
2017-02-28T11:56:29.145Z,66.38
2017-02-28T11:57:29.173Z,66.09
2017-02-28T11:58:43.711Z,65.61
2017-02-28T11:59:29.205Z,65.45
2017-02-28T12:00:29.239Z,64.69
2017-02-28T12:01:29.248Z,64.18
2017-02-28T12:02:29.277Z,64.37
2017-02-28T12:03:29.292Z,64.75
2017-02-28T12:04:29.315Z,64.75
2017-02-28T12:05:29.336Z,64.47
2017-02-28T12:06:29.360Z,65.2
2017-02-28T12:07:29.390Z,64.72
2017-02-28T12:08:29.403Z,63.76
2017-02-28T12:09:29.426Z,64.62
2017-02-28T12:10:29.455Z,64.62
2017-02-28T12:11:29.470Z,65.29
2017-02-28T12:12:29.104Z,64.81
2017-02-28T12:13:29.127Z,65
2017-02-28T12:14:44.066Z,64.34
2017-02-28T12:15:29.567Z,64.34
2017-02-28T12:16:29.578Z,64.81
2017-02-28T12:19:29.646Z,64.24
2017-02-28T12:20:29.669Z,64.43
2017-02-28T12:21:29.690Z,64.24
2017-02-28T12:22:29.721Z,64.21
2017-02-28T12:23:29.732Z,64.31
2017-02-28T12:24:29.769Z,64.24
2017-02-28T12:25:29.801Z,64.05
2017-02-28T12:26:29.414Z,64.15
2017-02-28T12:27:29.822Z,63.86
2017-02-28T12:28:29.853Z,62.91
2017-02-28T12:29:29.866Z,61.96
2017-02-28T12:30:44.415Z,62.05
2017-02-28T12:31:29.908Z,61.1
2017-02-28T12:32:29.931Z,60.24
2017-02-28T12:33:29.964Z,59.95
2017-02-28T12:34:29.974Z,59.38
2017-02-28T12:35:30.003Z,59.51
2017-02-28T12:36:30.028Z,59.51
2017-02-28T12:37:29.652Z,58.46
2017-02-28T12:38:30.061Z,58.46
2017-02-28T12:39:30.083Z,58.94
2017-02-28T12:40:30.109Z,58.46
2017-02-28T12:41:30.132Z,57.41
2017-02-28T12:42:30.151Z,57.43
2017-02-28T12:43:30.172Z,57.06
2017-02-28T12:44:30.194Z,55.43
2017-02-28T12:45:30.214Z,54.57
2017-02-28T12:46:44.767Z,54.29
2017-02-28T12:47:30.262Z,54.77
2017-02-28T12:48:30.293Z,54.29
2017-02-28T12:49:30.324Z,54
2017-02-28T12:50:30.326Z,53.62
2017-02-28T12:51:30.348Z,53.81
2017-02-28T12:52:30.371Z,54.29
2017-02-28T12:53:30.395Z,53.62
2017-02-28T12:54:30.416Z,53.14
2017-02-28T12:55:30.438Z,53.21
2017-02-28T12:56:30.469Z,53.59
2017-02-28T12:57:30.482Z,53.5
2017-02-28T12:58:30.506Z,53.97
2017-02-28T12:59:30.526Z,53.21
2017-02-28T13:01:45.101Z,51.81
2017-02-28T13:02:30.595Z,52.57
2017-02-28T13:03:30.611Z,52.86
2017-02-28T13:04:30.638Z,53.33
2017-02-28T13:05:30.661Z,52.67
2017-02-28T13:06:30.695Z,52
2017-02-28T13:07:30.716Z,50.76
2017-02-28T13:08:30.737Z,51.02
2017-02-28T13:09:30.757Z,51.4
2017-02-28T13:10:30.770Z,52.45
2017-02-28T13:11:30.795Z,52.73
2017-02-28T13:12:30.821Z,53.21
2017-02-28T13:13:30.451Z,53.12
2017-02-28T13:14:30.858Z,52.92
2017-02-28T13:15:30.883Z,52.55
2017-02-28T13:16:30.907Z,53.31
2017-02-28T13:17:30.927Z,53.21
2017-02-28T13:18:30.947Z,53.31
2017-02-28T13:19:30.979Z,52.36
2017-02-28T13:20:30.993Z,52.45
2017-02-28T13:21:31.015Z,52.36
2017-02-28T13:22:31.048Z,52.73
2017-02-28T13:23:31.064Z,52.64
2017-02-28T13:24:31.082Z,52.73
2017-02-28T13:25:31.105Z,52.73
2017-02-28T13:26:31.134Z,52.07
2017-02-28T13:27:31.147Z,51.59
2017-02-28T13:28:31.181Z,52.26
2017-02-28T13:29:31.195Z,52.26
2017-02-28T13:30:31.220Z,52.45
2017-02-28T13:31:31.241Z,52.64
2017-02-28T13:32:31.257Z,53.12
2017-02-28T13:33:45.809Z,52.45